Time;durP1;ratioP1;P1;durP2;ratioP2;P2;SDS_P1;SDS_P2;PMS_P1;PMS_P2;Temp;Humidity;BMP_temperature;BMP_pressure;BME280_temperature;BME280_humidity;BME280_pressure;Samples;Min_cycle;Max_cycle;Signal;HPM_P1;HPM_P2
2023/06/23 00:02:05;;;;;;;9.77;3.15;;;;;;;;;;5014150;28;20038;-75
2023/06/23 00:04:31;;;;;;;7.53;3.67;;;;;;;;;;5013897;28;20037;-77
2023/06/23 00:06:59;;;;;;;10.07;3.83;;;;;;;;;;5013762;28;20061;-77
2023/06/23 00:09:24;;;;;;;26.13;4.35;;;;;;;;;;5012674;28;20026;-76
2023/06/23 00:11:50;;;;;;;7.95;3.70;;;;;;;;;;5013588;28;20060;-76
2023/06/23 00:14:16;;;;;;;8.70;3.90;;;;;;;;;;5012916;28;20108;-78
2023/06/23 00:16:42;;;;;;;7.05;3.72;;;;;;;;;;5012588;28;20027;-77
2023/06/23 00:19:07;;;;;;;10.05;3.30;;;;;;;;;;5012190;28;20034;-76
2023/06/23 00:21:33;;;;;;;13.50;3.33;;;;;;;;;;5012147;28;20061;-77
2023/06/23 00:23:59;;;;;;;10.02;3.80;;;;;;;;;;5012084;28;20497;-78
2023/06/23 00:26:24;;;;;;;12.43;3.58;;;;;;;;;;5012369;28;20041;-76
2023/06/23 00:28:51;;;;;;;7.90;3.25;;;;;;;;;;5012288;28;20083;-76
2023/06/23 00:31:16;;;;;;;7.28;3.67;;;;;;;;;;5013514;28;20359;-75
2023/06/23 00:33:42;;;;;;;9.70;3.10;;;;;;;;;;5012841;28;20036;-75
2023/06/23 00:36:08;;;;;;;8.60;3.45;;;;;;;;;;5011781;28;20038;-77
2023/06/23 00:38:34;;;;;;;10.13;3.78;;;;;;;;;;5014470;28;20022;-75
2023/06/23 00:41:00;;;;;;;8.85;3.53;;;;;;;;;;5013606;28;20061;-78
2023/06/23 00:43:26;;;;;;;9.70;3.53;;;;;;;;;;4995075;28;20040;-77
2023/06/23 00:45:52;;;;;;;24.27;3.92;;;;;;;;;;5013352;28;20025;-75
2023/06/23 00:48:18;;;;;;;9.25;3.03;;;;;;;;;;5012501;28;20034;-75
2023/06/23 00:50:44;;;;;;;11.85;3.53;;;;;;;;;;5013352;28;20033;-78
2023/06/23 00:53:10;;;;;;;9.35;3.42;;;;;;;;;;5011798;28;20077;-76
2023/06/23 00:55:38;;;;;;;6.88;3.42;;;;;;;;;;5012212;28;20056;-76
2023/06/23 00:58:05;;;;;;;5.88;3.35;;;;;;;;;;5013356;28;20029;-76
2023/06/23 01:00:30;;;;;;;14.40;3.13;;;;;;;;;;5012782;28;20855;-75
2023/06/23 01:03:01;;;;;;;7.78;2.97;;;;;;;;;;5011444;28;20109;-77
2023/06/23 01:05:35;;;;;;;7.05;2.78;;;;;;;;;;5012878;28;20028;-78
2023/06/23 01:08:15;;;;;;;10.10;3.20;;;;;;;;;;5013008;28;20085;-76
2023/06/23 01:11:22;;;;;;;10.30;3.15;;;;;;;;;;5013088;28;20060;-76
2023/06/23 01:14:34;;;;;;;9.85;3.13;;;;;;;;;;4933214;29;20032;-77
2023/06/23 01:17:09;;;;;;;9.82;3.65;;;;;;;;;;4997203;28;20068;-76
2023/06/23 01:20:09;;;;;;;6.35;3.17;;;;;;;;;;5011713;28;20040;-76
2023/06/23 01:23:14;;;;;;;9.85;4.05;;;;;;;;;;5012929;28;20038;-76
2023/06/23 01:26:04;;;;;;;11.63;3.78;;;;;;;;;;4974019;28;20045;-77
2023/06/23 01:28:37;;;;;;;10.68;4.20;;;;;;;;;;5011102;28;20038;-75
2023/06/23 01:31:07;;;;;;;6.63;3.17;;;;;;;;;;5012325;28;20472;-77
2023/06/23 01:33:42;;;;;;;8.63;3.10;;;;;;;;;;5012553;28;20022;-76
2023/06/23 01:36:13;;;;;;;5.93;3.65;;;;;;;;;;5012676;28;20044;-74
2023/06/23 01:38:50;;;;;;;9.00;3.92;;;;;;;;;;5012895;28;20026;-75
2023/06/23 01:41:25;;;;;;;5.22;3.38;;;;;;;;;;5012403;28;20492;-77
2023/06/23 01:43:55;;;;;;;10.52;4.13;;;;;;;;;;5012754;28;20030;-77
2023/06/23 01:46:26;;;;;;;5.80;3.05;;;;;;;;;;5010876;28;20053;-77
2023/06/23 01:48:59;;;;;;;9.57;3.85;;;;;;;;;;5012280;28;20041;-76
2023/06/23 01:51:26;;;;;;;6.72;3.10;;;;;;;;;;5010927;28;20099;-76
2023/06/23 01:53:53;;;;;;;7.05;2.80;;;;;;;;;;5010550;28;20041;-76
2023/06/23 01:56:21;;;;;;;6.78;2.80;;;;;;;;;;5010673;28;20030;-76
2023/06/23 01:58:50;;;;;;;6.60;3.05;;;;;;;;;;5011663;28;20056;-77
2023/06/23 02:01:16;;;;;;;7.05;2.88;;;;;;;;;;5011318;28;20048;-75
2023/06/23 02:03:42;;;;;;;9.52;2.80;;;;;;;;;;5010742;28;20052;-77
2023/06/23 02:06:10;;;;;;;12.27;2.78;;;;;;;;;;5011698;28;20030;-76
2023/06/23 02:08:36;;;;;;;5.55;2.75;;;;;;;;;;5012121;28;20028;-76
2023/06/23 02:11:03;;;;;;;7.80;4.45;;;;;;;;;;5010509;28;20477;-77
2023/06/23 02:13:29;;;;;;;5.93;3.03;;;;;;;;;;5012868;28;20121;-75
2023/06/23 02:15:56;;;;;;;5.07;2.70;;;;;;;;;;5012376;28;20056;-76
2023/06/23 02:18:24;;;;;;;5.25;2.60;;;;;;;;;;5012288;28;20100;-75
2023/06/23 02:20:51;;;;;;;8.70;2.55;;;;;;;;;;5012038;28;20101;-77
2023/06/23 02:23:19;;;;;;;5.00;2.65;;;;;;;;;;5010151;28;20058;-75
2023/06/23 02:25:45;;;;;;;6.72;2.78;;;;;;;;;;5011557;28;20494;-76
2023/06/23 02:28:11;;;;;;;11.35;3.33;;;;;;;;;;5009970;28;20033;-75
2023/06/23 02:30:38;;;;;;;8.18;2.72;;;;;;;;;;5010647;28;20457;-75
2023/06/23 02:33:04;;;;;;;4.53;2.53;;;;;;;;;;5010401;28;20022;-76
2023/06/23 02:35:30;;;;;;;7.47;2.90;;;;;;;;;;5012194;28;20485;-76
2023/06/23 02:38:00;;;;;;;6.63;3.03;;;;;;;;;;5010419;28;20065;-76
2023/06/23 02:40:29;;;;;;;10.60;2.80;;;;;;;;;;5010461;28;20029;-77
2023/06/23 02:43:17;;;;;;;6.47;3.00;;;;;;;;;;5010050;28;20026;-76
2023/06/23 02:45:48;;;;;;;5.68;2.72;;;;;;;;;;5011750;28;20061;-76
2023/06/23 02:48:18;;;;;;;4.93;2.42;;;;;;;;;;5011483;28;20033;-76
2023/06/23 02:50:45;;;;;;;7.32;2.35;;;;;;;;;;5012072;28;20392;-76
2023/06/23 02:53:16;;;;;;;5.07;2.78;;;;;;;;;;5011887;28;20022;-76
2023/06/23 02:55:44;;;;;;;6.60;3.10;;;;;;;;;;5012265;28;20026;-77
2023/06/23 02:58:13;;;;;;;9.95;2.92;;;;;;;;;;5011206;28;20338;-76
2023/06/23 03:00:39;;;;;;;4.50;2.92;;;;;;;;;;5009892;28;20022;-76
2023/06/23 03:03:09;;;;;;;5.80;2.72;;;;;;;;;;5009614;28;20021;-76
2023/06/23 03:05:35;;;;;;;5.47;2.80;;;;;;;;;;5011606;28;20029;-77
2023/06/23 03:08:01;;;;;;;11.77;2.97;;;;;;;;;;5013596;28;20133;-77
2023/06/23 03:10:28;;;;;;;3.65;2.60;;;;;;;;;;5015240;28;20029;-76
2023/06/23 03:12:54;;;;;;;9.68;2.70;;;;;;;;;;5014467;28;20042;-76
2023/06/23 03:15:20;;;;;;;7.57;3.15;;;;;;;;;;5014668;28;20277;-76
2023/06/23 03:17:48;;;;;;;9.75;3.05;;;;;;;;;;5013547;28;20417;-78
2023/06/23 03:20:32;;;;;;;8.57;2.97;;;;;;;;;;5014245;28;20108;-76
2023/06/23 03:23:04;;;;;;;5.80;2.20;;;;;;;;;;5013335;28;20195;-78
2023/06/23 03:25:30;;;;;;;5.30;2.80;;;;;;;;;;5014160;28;20033;-76
2023/06/23 03:27:59;;;;;;;7.70;2.97;;;;;;;;;;5014416;28;20393;-76
2023/06/23 03:30:33;;;;;;;7.57;2.38;;;;;;;;;;5014478;28;20100;-76
2023/06/23 03:33:03;;;;;;;7.38;2.30;;;;;;;;;;5014136;28;20049;-77
2023/06/23 03:35:34;;;;;;;8.65;2.90;;;;;;;;;;5014954;28;20385;-76
2023/06/23 03:38:03;;;;;;;8.82;3.00;;;;;;;;;;5012967;28;20042;-76
2023/06/23 03:40:33;;;;;;;8.52;2.67;;;;;;;;;;5013314;28;20452;-74
2023/06/23 03:43:08;;;;;;;4.85;2.47;;;;;;;;;;5014426;28;20022;-77
2023/06/23 03:45:35;;;;;;;4.35;2.53;;;;;;;;;;5013166;28;20034;-77
2023/06/23 03:48:05;;;;;;;5.90;2.40;;;;;;;;;;5013957;28;20026;-76
2023/06/23 03:50:35;;;;;;;6.80;3.00;;;;;;;;;;5014663;28;20018;-77
2023/06/23 03:53:05;;;;;;;9.85;3.38;;;;;;;;;;5012993;28;20473;-75
2023/06/23 03:55:32;;;;;;;8.30;3.07;;;;;;;;;;5014711;28;20030;-76
2023/06/23 03:58:02;;;;;;;6.90;2.85;;;;;;;;;;5012862;28;20080;-79
2023/06/23 04:00:31;;;;;;;4.90;2.67;;;;;;;;;;5013079;28;20041;-75
2023/06/23 04:02:59;;;;;;;8.48;2.97;;;;;;;;;;5014376;28;20030;-76
2023/06/23 04:05:29;;;;;;;7.95;2.40;;;;;;;;;;5013793;28;20037;-77
2023/06/23 04:07:57;;;;;;;8.13;2.75;;;;;;;;;;5012609;28;20037;-75
2023/06/23 04:10:24;;;;;;;8.55;2.60;;;;;;;;;;5012289;28;20425;-78
2023/06/23 04:12:51;;;;;;;12.77;2.97;;;;;;;;;;5014189;28;20065;-76
2023/06/23 04:15:19;;;;;;;6.90;3.17;;;;;;;;;;5012680;28;20385;-76
2023/06/23 04:17:46;;;;;;;12.63;4.30;;;;;;;;;;5011837;28;20536;-77
2023/06/23 04:20:14;;;;;;;14.65;4.25;;;;;;;;;;5013643;28;20025;-76
2023/06/23 04:22:42;;;;;;;8.82;3.30;;;;;;;;;;5013297;28;20045;-77
2023/06/23 04:25:09;;;;;;;13.05;3.20;;;;;;;;;;5012958;28;20303;-76
2023/06/23 04:27:38;;;;;;;11.50;3.97;;;;;;;;;;5014046;28;20474;-77
2023/06/23 04:30:06;;;;;;;9.63;3.88;;;;;;;;;;5012361;28;20028;-76
2023/06/23 04:32:33;;;;;;;14.02;3.90;;;;;;;;;;5013359;28;20022;-78
2023/06/23 04:34:58;;;;;;;6.93;2.58;;;;;;;;;;5013699;28;20033;-76
2023/06/23 04:37:30;;;;;;;9.77;3.33;;;;;;;;;;5012862;28;20033;-76
2023/06/23 04:40:23;;;;;;;10.63;3.80;;;;;;;;;;5011637;28;20025;-75
2023/06/23 04:42:54;;;;;;;6.28;3.75;;;;;;;;;;5012728;28;20505;-76
2023/06/23 04:45:23;;;;;;;7.88;3.22;;;;;;;;;;5011780;28;20109;-76
2023/06/23 04:47:55;;;;;;;6.97;2.90;;;;;;;;;;5012742;28;20034;-78
2023/06/23 04:50:23;;;;;;;6.68;3.08;;;;;;;;;;5013067;28;20036;-76
2023/06/23 04:52:53;;;;;;;11.32;4.18;;;;;;;;;;5011727;28;20053;-76
2023/06/23 04:55:21;;;;;;;13.48;4.15;;;;;;;;;;5011150;28;20025;-77
2023/06/23 04:57:50;;;;;;;6.65;3.38;;;;;;;;;;5011661;28;20396;-75
2023/06/23 05:00:21;;;;;;;7.22;3.30;;;;;;;;;;5012572;28;20022;-75
2023/06/23 05:02:48;;;;;;;13.73;3.78;;;;;;;;;;5011559;28;20100;-76
2023/06/23 05:05:21;;;;;;;10.77;3.88;;;;;;;;;;5009213;28;20034;-77
2023/06/23 05:07:48;;;;;;;7.18;3.53;;;;;;;;;;5025092;28;20033;-76
2023/06/23 05:10:15;;;;;;;7.50;3.80;;;;;;;;;;5011603;28;20036;-80
2023/06/23 05:12:43;;;;;;;14.73;4.30;;;;;;;;;;4991226;28;20031;-78
2023/06/23 05:15:10;;;;;;;9.23;4.30;;;;;;;;;;5027184;28;20126;-78
2023/06/23 05:17:38;;;;;;;11.35;3.92;;;;;;;;;;5024757;28;20107;-80
2023/06/23 05:20:07;;;;;;;10.73;4.40;;;;;;;;;;5010260;28;20051;-78
2023/06/23 05:22:36;;;;;;;7.85;4.25;;;;;;;;;;4999332;28;20068;-79
2023/06/23 05:25:04;;;;;;;7.18;3.83;;;;;;;;;;5008026;28;20771;-79
2023/06/23 05:27:35;;;;;;;9.88;4.35;;;;;;;;;;5009950;28;20518;-79
2023/06/23 05:30:05;;;;;;;13.43;3.97;;;;;;;;;;5011599;28;20026;-77
2023/06/23 05:32:34;;;;;;;13.63;4.40;;;;;;;;;;5011155;28;20025;-78
2023/06/23 05:35:03;;;;;;;6.13;3.90;;;;;;;;;;5010667;28;20473;-76
2023/06/23 05:37:32;;;;;;;12.25;4.13;;;;;;;;;;5008546;28;20026;-77
2023/06/23 05:40:01;;;;;;;9.02;3.90;;;;;;;;;;5009870;28;20030;-78
2023/06/23 05:42:29;;;;;;;7.85;4.00;;;;;;;;;;5011273;28;20097;-75
2023/06/23 05:44:55;;;;;;;9.98;3.20;;;;;;;;;;5009110;28;20109;-76
2023/06/23 05:47:25;;;;;;;10.77;3.90;;;;;;;;;;5007289;28;20544;-75
2023/06/23 05:49:55;;;;;;;10.57;3.63;;;;;;;;;;5011115;28;20504;-75
2023/06/23 05:52:22;;;;;;;10.45;3.33;;;;;;;;;;5009288;28;20061;-78
2023/06/23 05:54:52;;;;;;;8.55;2.97;;;;;;;;;;5009247;28;20034;-77
2023/06/23 05:57:38;;;;;;;8.10;3.97;;;;;;;;;;5008906;28;20040;-75
2023/06/23 06:00:13;;;;;;;8.73;3.53;;;;;;;;;;5008599;28;20112;-76
2023/06/23 06:02:46;;;;;;;8.90;3.58;;;;;;;;;;5008963;28;20090;-77
2023/06/23 06:05:17;;;;;;;8.63;2.88;;;;;;;;;;5014378;28;20041;-76
2023/06/23 06:07:46;;;;;;;4.00;2.90;;;;;;;;;;5016714;28;20034;-77
2023/06/23 06:10:15;;;;;;;9.70;3.20;;;;;;;;;;5015917;28;20036;-78
2023/06/23 06:12:44;;;;;;;5.88;2.78;;;;;;;;;;5015749;28;20097;-76
2023/06/23 06:15:13;;;;;;;7.53;2.42;;;;;;;;;;4998698;28;20030;-77
2023/06/23 06:17:42;;;;;;;9.65;3.10;;;;;;;;;;5016145;28;20057;-77
2023/06/23 06:20:10;;;;;;;5.35;2.78;;;;;;;;;;5015355;28;20025;-78
2023/06/23 06:22:42;;;;;;;6.97;2.60;;;;;;;;;;5015536;28;20096;-77
2023/06/23 06:25:11;;;;;;;7.32;2.75;;;;;;;;;;5015414;28;20077;-76
2023/06/23 06:27:39;;;;;;;3.83;2.70;;;;;;;;;;5015485;28;20061;-77
2023/06/23 06:30:07;;;;;;;4.75;2.70;;;;;;;;;;4999034;28;20026;-79
2023/06/23 06:32:46;;;;;;;6.13;2.70;;;;;;;;;;5000415;28;20033;-78
2023/06/23 06:35:15;;;;;;;6.45;2.30;;;;;;;;;;5016954;28;20038;-77
2023/06/23 06:37:47;;;;;;;6.38;2.90;;;;;;;;;;5016532;28;20037;-79
2023/06/23 06:40:20;;;;;;;2.47;2.05;;;;;;;;;;5015357;28;20053;-75
2023/06/23 06:42:48;;;;;;;3.38;2.10;;;;;;;;;;5019973;28;20048;-78
2023/06/23 06:45:15;;;;;;;6.30;2.53;;;;;;;;;;5020367;28;20141;-78
2023/06/23 06:47:44;;;;;;;5.13;2.58;;;;;;;;;;5021406;28;20026;-78
2023/06/23 06:50:18;;;;;;;9.05;2.40;;;;;;;;;;5003926;28;20029;-75
2023/06/23 06:52:49;;;;;;;7.25;2.50;;;;;;;;;;5018270;28;20025;-75
2023/06/23 06:55:20;;;;;;;3.33;2.10;;;;;;;;;;5003627;28;20036;-76
2023/06/23 06:57:51;;;;;;;4.45;2.22;;;;;;;;;;5019455;28;20029;-76
2023/06/23 07:00:21;;;;;;;4.53;2.30;;;;;;;;;;5019396;28;20187;-76
2023/06/23 07:02:47;;;;;;;6.00;1.73;;;;;;;;;;5017784;28;20033;-76
2023/06/23 07:05:13;;;;;;;3.30;1.52;;;;;;;;;;5018133;28;20029;-77
2023/06/23 07:07:44;;;;;;;3.08;1.60;;;;;;;;;;5013874;28;20100;-77
2023/06/23 07:10:11;;;;;;;1.73;1.63;;;;;;;;;;5011530;28;20099;-78
2023/06/23 07:12:37;;;;;;;2.20;1.92;;;;;;;;;;5011743;28;20077;-80
2023/06/23 07:15:04;;;;;;;4.05;1.40;;;;;;;;;;5013708;28;20029;-75
2023/06/23 07:17:30;;;;;;;1.52;1.23;;;;;;;;;;5015422;28;20013;-77
2023/06/23 07:19:56;;;;;;;6.95;1.20;;;;;;;;;;5012664;28;20481;-76
2023/06/23 07:22:29;;;;;;;3.33;1.60;;;;;;;;;;5019569;28;20030;-77
2023/06/23 07:24:56;;;;;;;3.75;1.30;;;;;;;;;;5015986;28;20030;-77
2023/06/23 07:27:39;;;;;;;8.65;2.08;;;;;;;;;;5001393;28;20050;-77
2023/06/23 07:30:15;;;;;;;2.95;2.30;;;;;;;;;;5017942;28;20037;-80
2023/06/23 07:32:47;;;;;;;4.95;1.90;;;;;;;;;;5012924;28;20462;-78
2023/06/23 07:35:19;;;;;;;2.80;1.73;;;;;;;;;;5008286;28;20460;-75
2023/06/23 07:37:45;;;;;;;3.70;2.10;;;;;;;;;;5014343;28;20033;-76
2023/06/23 07:40:24;;;;;;;2.70;1.77;;;;;;;;;;5010563;28;20030;-77
2023/06/23 07:42:51;;;;;;;1.55;1.45;;;;;;;;;;5015459;28;20112;-77
2023/06/23 07:45:20;;;;;;;3.03;1.40;;;;;;;;;;5010777;28;20038;-76
2023/06/23 07:48:25;;;;;;;1.40;1.17;;;;;;;;;;5013150;28;20121;-77
2023/06/23 07:50:54;;;;;;;5.25;1.60;;;;;;;;;;5008900;28;20068;-75
2023/06/23 07:53:24;;;;;;;2.05;1.20;;;;;;;;;;5015170;28;20247;-76
2023/06/23 07:56:13;;;;;;;;;;;;;;;;;;;;;
2023/06/23 07:58:55;;;;;;;1.00;1.00;;;;;;;;;;5015266;28;20642;-78
2023/06/23 08:01:52;;;;;;;;;;;;;;;;;;;;;
2023/06/23 08:04:23;;;;;;;3.40;2.00;;;;;;;;;;5017059;28;20140;-77
2023/06/23 08:06:52;;;;;;;1.25;1.15;;;;;;;;;;5015171;28;20061;-76
2023/06/23 08:09:18;;;;;;;1.35;1.00;;;;;;;;;;5015644;28;20470;-75
2023/06/23 08:11:45;;;;;;;4.68;1.20;;;;;;;;;;5015212;28;20033;-77
2023/06/23 08:14:11;;;;;;;3.10;1.33;;;;;;;;;;5017129;28;20481;-78
2023/06/23 08:16:49;;;;;;;1.63;1.20;;;;;;;;;;5016024;28;20025;-75
2023/06/23 08:19:35;;;;;;;2.75;1.33;;;;;;;;;;5020007;28;20474;-78
2023/06/23 08:22:04;;;;;;;3.40;1.05;;;;;;;;;;5017138;28;20473;-76
2023/06/23 08:24:30;;;;;;;4.55;1.23;;;;;;;;;;5011007;28;20527;-77
2023/06/23 08:26:59;;;;;;;3.13;1.42;;;;;;;;;;5014015;28;20144;-76
2023/06/23 08:29:31;;;;;;;4.13;1.00;;;;;;;;;;5016865;28;20033;-77
2023/06/23 08:32:01;;;;;;;2.60;1.20;;;;;;;;;;5011005;28;20030;-77
2023/06/23 08:34:28;;;;;;;4.25;1.40;;;;;;;;;;5014322;28;20029;-76
2023/06/23 08:37:04;;;;;;;1.58;1.40;;;;;;;;;;5012950;28;20095;-77
2023/06/23 08:39:56;;;;;;;2.63;1.30;;;;;;;;;;5015284;28;20077;-77
2023/06/23 08:42:34;;;;;;;;;;;;;;;;;;;;;
2023/06/23 08:45:03;;;;;;;2.63;1.25;;;;;;;;;;5012965;28;20133;-77
2023/06/23 08:47:48;;;;;;;1.63;1.40;;;;;;;;;;5017385;28;20678;-78
2023/06/23 08:50:34;;;;;;;4.65;1.48;;;;;;;;;;5009119;28;20029;-77
2023/06/23 08:53:00;;;;;;;1.33;1.20;;;;;;;;;;5032282;28;20077;-77
2023/06/23 08:56:02;;;;;;;3.30;1.60;;;;;;;;;;5018160;28;20563;-76
2023/06/23 08:58:29;;;;;;;;;;;;;;;;;;4922969;29;20084;-77
2023/06/23 09:00:54;;;;;;;3.63;1.60;;;;;;;;;;5010193;28;19917;-77
2023/06/23 09:03:22;;;;;;;2.40;1.20;;;;;;;;;;5006437;28;20496;-77
2023/06/23 09:05:49;;;;;;;5.50;1.55;;;;;;;;;;5003225;28;20052;-79
2023/06/23 09:08:15;;;;;;;2.33;1.55;;;;;;;;;;5005871;28;20056;-78
2023/06/23 09:10:41;;;;;;;4.38;1.60;;;;;;;;;;5003077;28;20409;-79
2023/06/23 09:13:23;;;;;;;3.65;1.40;;;;;;;;;;5003375;28;20022;-80
2023/06/23 09:15:50;;;;;;;1.48;1.20;;;;;;;;;;5007102;28;20065;-80
2023/06/23 09:18:16;;;;;;;1.50;1.23;;;;;;;;;;5008871;28;20068;-78
2023/06/23 09:20:49;;;;;;;3.28;1.40;;;;;;;;;;5009895;28;20113;-79
2023/06/23 09:23:23;;;;;;;1.65;1.15;;;;;;;;;;5009952;28;20042;-77
2023/06/23 09:25:56;;;;;;;2.10;1.73;;;;;;;;;;5008024;28;20986;-78
2023/06/23 09:28:40;;;;;;;1.67;1.45;;;;;;;;;;5006738;28;20030;-79
2023/06/23 09:31:12;;;;;;;2.63;1.40;;;;;;;;;;5008152;28;20029;-82
2023/06/23 09:33:51;;;;;;;3.10;2.33;;;;;;;;;;5006243;28;20018;-79
2023/06/23 09:36:17;;;;;;;2.50;1.52;;;;;;;;;;5002560;28;20058;-78
2023/06/23 09:38:45;;;;;;;2.22;1.88;;;;;;;;;;5008778;28;20381;-78
2023/06/23 09:41:18;;;;;;;1.80;1.58;;;;;;;;;;4991524;28;20034;-83
2023/06/23 09:43:47;;;;;;;2.70;1.88;;;;;;;;;;4993631;28;20042;-81
2023/06/23 09:46:15;;;;;;;5.18;2.03;;;;;;;;;;5008015;28;20069;-80
2023/06/23 09:48:43;;;;;;;5.00;2.03;;;;;;;;;;5000398;28;20096;-78
2023/06/23 09:51:09;;;;;;;1.95;1.73;;;;;;;;;;5003307;28;20034;-77
2023/06/23 09:53:40;;;;;;;2.33;1.98;;;;;;;;;;5007513;28;20026;-77
2023/06/23 09:56:12;;;;;;;2.55;2.03;;;;;;;;;;4989726;28;20490;-81
2023/06/23 09:58:45;;;;;;;3.67;2.35;;;;;;;;;;5003772;28;20045;-79
2023/06/23 10:01:17;;;;;;;2.28;1.95;;;;;;;;;;5006258;28;20089;-79
2023/06/23 10:03:54;;;;;;;2.83;1.92;;;;;;;;;;4991798;28;20073;-76
2023/06/23 10:06:32;;;;;;;3.22;2.20;;;;;;;;;;5003041;28;20092;-78
2023/06/23 10:08:59;;;;;;;6.57;2.85;;;;;;;;;;5005491;28;20034;-77
2023/06/23 10:11:39;;;;;;;3.92;2.65;;;;;;;;;;4972609;28;20034;-77
2023/06/23 10:14:10;;;;;;;4.20;2.30;;;;;;;;;;5001459;28;20033;-81
2023/06/23 10:16:36;;;;;;;3.75;2.05;;;;;;;;;;5001531;28;20033;-78
2023/06/23 10:19:03;;;;;;;6.45;2.22;;;;;;;;;;5006365;28;20034;-76
2023/06/23 10:21:30;;;;;;;2.85;2.20;;;;;;;;;;5021391;28;20116;-78
2023/06/23 10:24:04;;;;;;;2.83;2.40;;;;;;;;;;5003489;28;20128;-78
2023/06/23 10:26:31;;;;;;;3.95;2.58;;;;;;;;;;4997823;28;20026;-80
2023/06/23 10:28:59;;;;;;;2.70;2.25;;;;;;;;;;5007287;28;20544;-81
2023/06/23 10:31:32;;;;;;;2.17;1.95;;;;;;;;;;5007592;28;20105;-82
2023/06/23 10:33:59;;;;;;;5.15;2.15;;;;;;;;;;5009009;28;20072;-78
2023/06/23 10:36:25;;;;;;;4.03;2.92;;;;;;;;;;5005012;28;21902;-80
2023/06/23 10:38:54;;;;;;;3.85;2.60;;;;;;;;;;5010576;28;20998;-80
2023/06/23 10:41:23;;;;;;;2.78;2.30;;;;;;;;;;5009718;28;20026;-85
2023/06/23 10:43:51;;;;;;;4.30;2.47;;;;;;;;;;5006878;28;20030;-82
2023/06/23 10:46:18;;;;;;;2.88;2.58;;;;;;;;;;5005374;28;20041;-79
2023/06/23 10:48:44;;;;;;;5.22;2.72;;;;;;;;;;5006734;28;20061;-85
2023/06/23 10:51:15;;;;;;;4.50;3.13;;;;;;;;;;5004947;28;20113;-81
2023/06/23 10:53:50;;;;;;;2.45;2.22;;;;;;;;;;5005680;28;20126;-82
2023/06/23 10:56:43;;;;;;;7.25;2.85;;;;;;;;;;4990896;28;20034;-80
2023/06/23 10:59:30;;;;;;;6.05;2.95;;;;;;;;;;4998809;28;20043;-83
2023/06/23 11:02:03;;;;;;;3.42;2.70;;;;;;;;;;5005641;28;20064;-77
2023/06/23 11:04:41;;;;;;;3.30;2.50;;;;;;;;;;5007684;28;20025;-82
2023/06/23 11:07:10;;;;;;;3.08;2.38;;;;;;;;;;5008532;28;20466;-78
2023/06/23 11:09:44;;;;;;;3.38;2.40;;;;;;;;;;5007682;28;20501;-83
2023/06/23 11:12:36;;;;;;;3.08;2.47;;;;;;;;;;5005976;28;20026;-83
2023/06/23 11:15:20;;;;;;;3.67;2.80;;;;;;;;;;5022949;28;21193;-80
2023/06/23 11:17:49;;;;;;;2.50;2.30;;;;;;;;;;5006784;28;20060;-83
2023/06/23 11:20:24;;;;;;;3.50;2.65;;;;;;;;;;5007206;28;20663;-86
2023/06/23 11:22:54;;;;;;;5.85;2.88;;;;;;;;;;5007066;28;20034;-84
2023/06/23 11:25:26;;;;;;;3.33;2.33;;;;;;;;;;5009576;28;20081;-82
2023/06/23 11:28:35;;;;;;;5.43;2.90;;;;;;;;;;5008236;28;20290;-82
2023/06/23 11:31:03;;;;;;;3.97;2.75;;;;;;;;;;5011558;28;20419;-83
2023/06/23 11:33:37;;;;;;;3.80;2.85;;;;;;;;;;5008690;28;20022;-84
2023/06/23 11:36:09;;;;;;;4.07;2.67;;;;;;;;;;5006596;28;20060;-82
2023/06/23 11:38:36;;;;;;;8.00;2.60;;;;;;;;;;5005440;28;20040;-79
2023/06/23 11:41:02;;;;;;;4.80;2.80;;;;;;;;;;5007975;28;20087;-80
2023/06/23 11:43:47;;;;;;;3.90;3.00;;;;;;;;;;5010086;28;20025;-79
2023/06/23 11:46:13;;;;;;;4.55;3.20;;;;;;;;;;5011352;28;20088;-79
2023/06/23 11:48:40;;;;;;;3.50;2.58;;;;;;;;;;5010207;28;20481;-80
2023/06/23 11:51:08;;;;;;;3.08;2.65;;;;;;;;;;5009691;28;20096;-80
2023/06/23 11:53:35;;;;;;;4.25;1.90;;;;;;;;;;5012862;28;20331;-80
2023/06/23 11:56:02;;;;;;;10.50;3.70;;;;;;;;;;5009811;28;20040;-78
2023/06/23 11:58:32;;;;;;;3.13;2.42;;;;;;;;;;5009306;28;20034;-78
2023/06/23 12:00:59;;;;;;;2.75;2.05;;;;;;;;;;5007612;28;20131;-79
2023/06/23 12:03:25;;;;;;;6.28;2.90;;;;;;;;;;5006441;28;20311;-79
2023/06/23 12:05:51;;;;;;;3.15;1.98;;;;;;;;;;4993405;28;20033;-77
2023/06/23 12:08:17;;;;;;;4.75;2.30;;;;;;;;;;5007072;28;20052;-78
2023/06/23 12:10:43;;;;;;;2.10;1.88;;;;;;;;;;5002496;28;20379;-79
2023/06/23 12:13:10;;;;;;;6.95;2.08;;;;;;;;;;5006957;28;20923;-79
2023/06/23 12:15:40;;;;;;;4.05;2.17;;;;;;;;;;5006622;28;20029;-79
2023/06/23 12:18:07;;;;;;;3.05;1.80;;;;;;;;;;5003849;28;20033;-82
2023/06/23 12:20:38;;;;;;;3.38;1.67;;;;;;;;;;5006322;28;20018;-80
2023/06/23 12:23:05;;;;;;;;;;;;;;;;;;5007553;28;20042;-79
2023/06/23 12:25:34;;;;;;;3.28;1.70;;;;;;;;;;5000394;28;19995;-80
2023/06/23 12:28:04;;;;;;;3.08;1.65;;;;;;;;;;4997521;28;20030;-79
2023/06/23 12:30:40;;;;;;;2.92;2.38;;;;;;;;;;5004518;28;20029;-79
2023/06/23 12:33:16;;;;;;;2.47;1.63;;;;;;;;;;4988820;28;20135;-78
2023/06/23 12:36:02;;;;;;;1.52;1.20;;;;;;;;;;5004033;28;20473;-77
2023/06/23 12:38:31;;;;;;;2.15;1.25;;;;;;;;;;5004779;28;20018;-80
2023/06/23 12:41:26;;;;;;;1.45;1.35;;;;;;;;;;5004628;28;20036;-78
2023/06/23 12:43:59;;;;;;;1.92;1.50;;;;;;;;;;5009595;28;20374;-79
2023/06/23 12:46:25;;;;;;;3.90;1.52;;;;;;;;;;5010474;28;20034;-78
2023/06/23 12:48:54;;;;;;;1.35;1.25;;;;;;;;;;5002280;28;20046;-78
2023/06/23 12:51:36;;;;;;;2.13;1.40;;;;;;;;;;5003549;28;20052;-76
2023/06/23 12:54:11;;;;;;;2.80;1.52;;;;;;;;;;5008766;28;20524;-78
2023/06/23 12:56:37;;;;;;;1.35;1.25;;;;;;;;;;5009535;28;20053;-78
2023/06/23 12:59:02;;;;;;;1.42;1.25;;;;;;;;;;4998627;28;20057;-77
2023/06/23 13:01:28;;;;;;;1.80;1.30;;;;;;;;;;5002080;28;20061;-79
2023/06/23 13:03:54;;;;;;;1.42;1.23;;;;;;;;;;5008902;28;20045;-79
2023/06/23 13:06:19;;;;;;;1.75;1.10;;;;;;;;;;5003106;28;20124;-79
2023/06/23 13:08:45;;;;;;;2.35;1.55;;;;;;;;;;5008509;28;20057;-78
2023/06/23 13:11:11;;;;;;;2.17;1.20;;;;;;;;;;5007630;28;20505;-77
2023/06/23 13:13:36;;;;;;;0.90;0.90;;;;;;;;;;5004070;28;20022;-78
2023/06/23 13:16:02;;;;;;;1.08;0.93;;;;;;;;;;4993992;28;20037;-77
2023/06/23 13:18:27;;;;;;;1.10;1.00;;;;;;;;;;5010348;28;20083;-77
2023/06/23 13:20:53;;;;;;;3.78;0.90;;;;;;;;;;5013104;28;20659;-78
2023/06/23 13:23:18;;;;;;;2.35;1.05;;;;;;;;;;4985113;28;20701;-75
2023/06/23 13:25:44;;;;;;;2.40;0.98;;;;;;;;;;5007615;28;20160;-79
2023/06/23 13:28:10;;;;;;;2.03;1.00;;;;;;;;;;5008902;28;20029;-79
2023/06/23 13:30:35;;;;;;;3.67;0.93;;;;;;;;;;5010693;28;20026;-78
2023/06/23 13:33:01;;;;;;;1.73;1.50;;;;;;;;;;5009559;28;20034;-79
2023/06/23 13:35:27;;;;;;;0.80;0.80;;;;;;;;;;5008713;28;20040;-77
2023/06/23 13:37:55;;;;;;;1.48;0.90;;;;;;;;;;5009283;28;20041;-80
2023/06/23 13:40:22;;;;;;;1.50;0.90;;;;;;;;;;5007087;28;20041;-78
2023/06/23 13:42:47;;;;;;;0.85;0.70;;;;;;;;;;4996182;28;20149;-78
2023/06/23 13:45:13;;;;;;;1.08;0.80;;;;;;;;;;5000618;28;20109;-79
2023/06/23 13:47:40;;;;;;;2.45;0.80;;;;;;;;;;5007462;28;20600;-78
2023/06/23 13:50:12;;;;;;;2.35;1.10;;;;;;;;;;5008810;28;20467;-80
2023/06/23 13:52:45;;;;;;;2.08;1.20;;;;;;;;;;5006731;28;20026;-77
2023/06/23 13:55:12;;;;;;;1.10;1.00;;;;;;;;;;5003124;28;20030;-77
2023/06/23 13:57:38;;;;;;;2.63;1.02;;;;;;;;;;5008320;28;20033;-77
2023/06/23 14:00:06;;;;;;;1.17;1.08;;;;;;;;;;5001539;28;20052;-75
2023/06/23 14:02:31;;;;;;;1.13;0.90;;;;;;;;;;5001004;28;20144;-77
2023/06/23 14:04:58;;;;;;;1.77;0.90;;;;;;;;;;5002544;28;20166;-79
2023/06/23 14:07:25;;;;;;;3.22;1.23;;;;;;;;;;5000129;28;20083;-79
2023/06/23 14:09:51;;;;;;;1.00;1.00;;;;;;;;;;5010180;28;20056;-78
2023/06/23 14:12:17;;;;;;;1.20;0.82;;;;;;;;;;5009953;28;20022;-77
2023/06/23 14:14:42;;;;;;;0.88;0.70;;;;;;;;;;5000224;28;20041;-78
2023/06/23 14:17:08;;;;;;;0.77;0.77;;;;;;;;;;5009104;28;20099;-79
2023/06/23 14:19:33;;;;;;;3.33;0.90;;;;;;;;;;5007839;28;20030;-78
2023/06/23 14:21:59;;;;;;;0.90;0.90;;;;;;;;;;4998710;28;20049;-81
2023/06/23 14:24:25;;;;;;;3.70;1.15;;;;;;;;;;4995687;28;20461;-79
2023/06/23 14:26:50;;;;;;;1.25;1.05;;;;;;;;;;5001509;28;20088;-79
2023/06/23 14:29:16;;;;;;;2.20;1.25;;;;;;;;;;5008142;28;20084;-79
2023/06/23 14:31:42;;;;;;;1.10;1.00;;;;;;;;;;5009035;28;20414;-78
2023/06/23 14:34:08;;;;;;;1.83;1.20;;;;;;;;;;5007267;28;20121;-78
2023/06/23 14:36:34;;;;;;;2.90;1.42;;;;;;;;;;5008212;28;20032;-78
2023/06/23 14:39:00;;;;;;;2.85;1.20;;;;;;;;;;4997069;28;20022;-78
2023/06/23 14:41:27;;;;;;;1.20;1.10;;;;;;;;;;5005395;28;20104;-78
2023/06/23 14:43:52;;;;;;;1.80;0.85;;;;;;;;;;5001317;28;20037;-77
2023/06/23 14:46:18;;;;;;;2.83;1.38;;;;;;;;;;5008609;28;20473;-77
2023/06/23 14:48:43;;;;;;;2.30;0.93;;;;;;;;;;5006718;28;20030;-77
2023/06/23 14:51:09;;;;;;;1.05;0.95;;;;;;;;;;4998487;28;20041;-79
2023/06/23 14:53:36;;;;;;;1.67;1.27;;;;;;;;;;5007852;28;20121;-78
2023/06/23 14:56:03;;;;;;;1.48;0.90;;;;;;;;;;5001304;28;20033;-79
2023/06/23 14:58:29;;;;;;;1.08;1.00;;;;;;;;;;4999550;28;20033;-78
2023/06/23 15:00:57;;;;;;;1.05;0.90;;;;;;;;;;5005471;28;20042;-76
2023/06/23 15:03:24;;;;;;;0.95;0.75;;;;;;;;;;5008870;28;20029;-78
2023/06/23 15:05:49;;;;;;;0.90;0.68;;;;;;;;;;5011064;28;20028;-78